Dover, Delaware
Current Conditions -  °F | °C
As of 10:28 AM on Wednesday 22 Oct 2014 (Local Time) from KDOV Reporting Station
Overcast Overcast  
Wind Chill: 57°   Ceiling: 1500
Heat Index: 57°   Visibility: 10mi
Dew Point: 57°   Wind: 13mph
Humidity: 100%   Direction: 350°N
Pressure: 29.83"   Gusts: NA
Location:  39.16°N, 75.52°W
Report Text: KDOV 221428Z AUTO 35011KT 10SM BKN015 BKN024 OVC030 14/14 A2983 RMK AO2 CIG 015V024 BKN015 V SCT $
Loading
Personal Weather Stations






























Interactive Weather Map
Tropical Storm Tracking
New forecast layout! Learn more

10-Day Weather Forecast

Advertisements
Track Severe Weather on mobile